Time;durP1;ratioP1;P1;durP2;ratioP2;P2;SDS_P1;SDS_P2;PMS_P1;PMS_P2;Temp;Humidity;BMP_temperature;BMP_pressure;BME280_temperature;BME280_humidity;BME280_pressure;Samples;Min_cycle;Max_cycle;Signal;HPM_P1;HPM_P2
2021/09/30 00:04:53;;;;;;;33.83;21.50;;;;;;;12.67;90.78;101145.67;5073233;58;21168;-91
2021/09/30 00:09:59;;;;;;;34.23;21.17;;;;;;;12.66;92.15;101151.09;5073008;58;21180;-89
2021/09/30 00:15:10;;;;;;;37.37;22.80;;;;;;;12.64;95.25;101155.67;5073208;58;21171;-88
2021/09/30 01:52:06;;;;;;;11.90;8.93;;;;;;;12.11;94.95;101244.05;5162465;57;21473;-91
2021/09/30 02:31:05;;;;;;;9.37;7.07;;;;;;;11.64;93.52;101294.63;5170043;57;21198;-90
2021/09/30 02:58:13;;;;;;;9.07;6.70;;;;;;;11.63;93.73;101311.95;5084384;58;21288;-91
2021/09/30 03:03:25;;;;;;;5.17;4.33;;;;;;;11.62;93.32;101310.25;5064450;58;21195;-89
2021/09/30 03:08:36;;;;;;;6.10;5.03;;;;;;;11.60;93.64;101310.39;5066283;58;21232;-87
2021/09/30 03:13:42;;;;;;;5.13;4.63;;;;;;;11.59;93.41;101325.91;5066109;58;21219;-87
2021/09/30 03:18:57;;;;;;;4.83;4.37;;;;;;;11.52;93.59;101342.31;5066306;58;21196;-89
2021/09/30 03:24:04;;;;;;;4.10;3.70;;;;;;;11.48;93.45;101337.70;5085883;58;21477;-88
2021/09/30 03:29:12;;;;;;;7.03;3.13;;;;;;;11.47;93.80;101348.39;5086465;58;21213;-89
2021/09/30 03:34:19;;;;;;;4.70;3.60;;;;;;;11.45;94.49;101359.13;5109106;57;22365;-88
2021/09/30 03:39:25;;;;;;;2.77;2.57;;;;;;;11.42;93.97;101373.05;5170626;57;21639;-87
2021/09/30 03:44:31;;;;;;;4.00;2.63;;;;;;;11.40;94.00;101379.77;5159035;57;21505;-89
2021/09/30 03:49:38;;;;;;;8.43;3.20;;;;;;;11.40;93.77;101383.73;5153686;57;21238;-86
2021/09/30 03:54:55;;;;;;;4.67;2.63;;;;;;;11.41;93.60;101380.62;5153815;57;21170;-88
2021/09/30 03:59:53;;;;;;;2.23;2.07;;;;;;;11.40;93.62;101389.52;5168368;57;21130;-88
2021/09/30 04:05:06;;;;;;;5.03;2.65;;;;;;;11.39;93.43;101396.61;5160854;57;21139;-90
2021/09/30 04:10:12;;;;;;;2.13;2.03;;;;;;;11.39;93.27;101392.64;5156050;57;21576;-90
2021/09/30 04:15:19;;;;;;;1.70;1.60;;;;;;;11.39;93.07;101402.38;5156504;57;21182;-89
2021/09/30 04:20:27;;;;;;;5.63;1.93;;;;;;;11.37;93.38;101413.55;5156349;57;21503;-86
2021/09/30 04:25:35;;;;;;;5.83;1.90;;;;;;;11.32;93.09;101414.31;5155380;57;21553;-92
2021/09/30 04:30:41;;;;;;;2.27;1.57;;;;;;;11.25;93.04;101424.48;5154821;57;21191;-89
2021/09/30 04:36:03;;;;;;;1.37;1.03;;;;;;;11.22;92.77;101420.71;5154937;57;21189;-86
2021/09/30 04:41:09;;;;;;;4.97;1.20;;;;;;;11.20;92.64;101434.52;5156766;57;21185;-88
2021/09/30 04:46:18;;;;;;;0.80;0.80;;;;;;;11.20;92.43;101443.31;5156899;57;21190;-87
2021/09/30 04:51:26;;;;;;;3.53;1.30;;;;;;;11.14;92.08;101430.50;5152749;57;21556;-92
2021/09/30 04:56:32;;;;;;;4.67;0.93;;;;;;;11.16;91.74;101436.98;5133219;57;21156;-85
2021/09/30 05:01:39;;;;;;;0.90;0.90;;;;;;;11.12;91.48;101442.98;5076106;57;21257;-91
2021/09/30 05:06:47;;;;;;;6.23;3.80;;;;;;;11.07;91.24;101455.66;5144315;56;21157;-87
2021/09/30 05:11:56;;;;;;;2.00;1.10;;;;;;;11.00;91.16;101458.31;5143097;56;22131;-89
2021/09/30 05:17:00;;;;;;;2.73;0.90;;;;;;;10.93;90.80;101463.64;5135001;57;21176;-85
2021/09/30 05:22:16;;;;;;;1.83;1.23;;;;;;;10.86;90.57;101464.96;5133517;57;21160;-92
2021/09/30 05:27:22;;;;;;;4.13;1.20;;;;;;;10.83;90.40;101474.45;5122349;57;21460;-86
2021/09/30 05:32:29;;;;;;;0.70;0.60;;;;;;;10.79;90.19;101475.58;5129349;56;21164;-82
2021/09/30 05:37:36;;;;;;;0.80;0.80;;;;;;;10.75;89.98;101472.27;5192581;56;21691;-88
2021/09/30 05:42:44;;;;;;;0.60;0.57;;;;;;;10.69;89.92;101466.06;5242519;56;21108;-82
2021/09/30 05:47:52;;;;;;;1.90;0.70;;;;;;;10.58;89.83;101469.36;5197846;56;21419;-85
2021/09/30 05:52:57;;;;;;;4.63;0.90;;;;;;;10.54;89.90;101476.28;5152795;56;21161;-85
2021/09/30 05:58:18;;;;;;;2.27;0.83;;;;;;;10.55;90.03;101476.63;5071087;58;21195;-86
2021/09/30 06:14:02;;;;;;;1.53;0.93;;;;;;;10.82;89.13;101497.41;5006837;59;20156;-84
2021/09/30 06:19:05;;;;;;;3.87;1.30;;;;;;;10.75;88.84;101501.37;5017686;58;21510;-85
2021/09/30 06:24:13;;;;;;;1.07;0.70;;;;;;;10.76;88.87;101506.20;5017269;59;21232;-85
2021/09/30 06:29:21;;;;;;;2.20;1.17;;;;;;;10.81;88.90;101506.77;5007234;58;21212;-87
2021/09/30 06:34:27;;;;;;;3.73;1.13;;;;;;;10.95;88.30;101516.48;4952005;59;21211;-87
2021/09/30 06:39:44;;;;;;;1.80;0.83;;;;;;;10.92;87.37;101513.55;4989244;58;21605;-85
2021/09/30 06:44:52;;;;;;;2.30;1.20;;;;;;;10.89;87.36;101516.38;4893467;60;21236;-84
2021/09/30 06:50:17;;;;;;;6.15;1.02;;;;;;;11.02;88.05;101533.19;4964804;59;21244;-85
2021/09/30 06:55:36;;;;;;;3.30;1.40;;;;;;;11.18;87.06;101539.68;4981785;59;21678;-85
2021/09/30 07:01:00;;;;;;;3.92;1.02;;;;;;;11.27;86.76;101550.55;4989040;59;21464;-87
2021/09/30 07:06:17;;;;;;;3.03;1.10;;;;;;;11.43;85.81;101549.56;4932926;59;21719;-85
2021/09/30 07:11:22;;;;;;;2.20;1.10;;;;;;;11.51;85.17;101557.38;5115970;57;21830;-87
2021/09/30 07:16:28;;;;;;;1.63;1.00;;;;;;;11.65;83.95;101561.78;5119286;57;21503;-76
2021/09/30 07:21:35;;;;;;;1.60;1.00;;;;;;;11.76;84.01;101565.95;5110807;57;21204;-76
2021/09/30 07:26:41;;;;;;;0.73;0.60;;;;;;;11.96;83.63;101581.84;5148671;56;21174;-81
2021/09/30 07:31:46;;;;;;;3.30;1.20;;;;;;;12.15;82.61;101571.71;5224185;56;21687;-79
2021/09/30 07:36:52;;;;;;;1.37;0.80;;;;;;;12.20;82.58;101575.39;5118365;57;21293;-80
2021/09/30 07:41:59;;;;;;;5.97;1.13;;;;;;;12.37;79.20;101576.90;5135946;57;21145;-81
2021/09/30 07:47:05;;;;;;;4.37;1.50;;;;;;;12.39;79.94;101577.62;5161886;57;21186;-78
2021/09/30 07:52:11;;;;;;;2.83;0.80;;;;;;;12.45;78.38;101581.19;5125532;57;21153;-87
2021/09/30 07:57:17;;;;;;;5.80;0.93;;;;;;;12.55;79.56;101579.12;5114905;57;21529;-84
2021/09/30 08:02:23;;;;;;;2.37;1.00;;;;;;;12.61;79.31;101582.69;5143354;57;21560;-84
2021/09/30 08:07:29;;;;;;;1.03;1.00;;;;;;;12.68;78.70;101588.41;5158492;57;21187;-83
2021/09/30 08:12:35;;;;;;;4.23;1.37;;;;;;;12.77;78.56;101589.59;5165407;57;21517;-88
2021/09/30 08:17:41;;;;;;;3.53;1.40;;;;;;;12.96;76.91;101601.48;5165814;57;21639;-77
2021/09/30 08:22:47;;;;;;;4.30;1.33;;;;;;;12.94;76.30;101601.20;5165492;57;22667;-81
2021/09/30 08:27:53;;;;;;;3.40;1.20;;;;;;;13.00;76.97;101600.28;5118448;57;21197;-81
2021/09/30 08:32:58;;;;;;;5.00;1.17;;;;;;;13.17;76.42;101608.41;5082021;58;21524;-80
2021/09/30 08:38:06;;;;;;;3.03;1.20;;;;;;;13.22;76.07;101606.30;5079764;58;21224;-78
2021/09/30 08:43:13;;;;;;;3.63;1.20;;;;;;;13.30;75.80;101623.00;5079686;58;21652;-80
2021/09/30 08:48:19;;;;;;;4.67;1.30;;;;;;;13.39;75.41;101605.08;5079488;58;21491;-78
2021/09/30 08:53:24;;;;;;;7.20;1.80;;;;;;;13.52;75.46;101603.71;5159106;57;21170;-79
2021/09/30 08:58:32;;;;;;;5.67;1.13;;;;;;;13.73;76.17;101607.47;5163382;57;21221;-79
2021/09/30 09:03:47;;;;;;;7.20;1.47;;;;;;;13.73;73.95;101610.13;5163517;57;22494;-81
2021/09/30 09:09:01;;;;;;;6.43;2.60;;;;;;;13.75;75.10;101609.52;5155961;57;22445;-80
2021/09/30 09:14:07;;;;;;;3.13;1.10;;;;;;;14.02;74.53;101622.60;5150375;57;21201;-78
2021/09/30 09:19:13;;;;;;;4.33;1.27;;;;;;;14.00;74.14;101625.38;5115901;57;21261;-79
2021/09/30 09:24:19;;;;;;;4.50;1.30;;;;;;;14.08;73.90;101628.78;5149799;57;21517;-81
2021/09/30 09:29:25;;;;;;;2.80;1.00;;;;;;;14.22;73.48;101633.91;5150153;57;21201;-79
2021/09/30 09:34:38;;;;;;;5.70;1.10;;;;;;;14.29;72.94;101628.98;5151010;57;21186;-80
2021/09/30 09:39:43;;;;;;;;;;;;;;;14.38;72.31;101627.80;5155448;57;22450;-80
2021/09/30 09:44:58;;;;;;;2.90;0.90;;;;;;;14.50;72.15;101623.41;5150835;57;20176;-81
2021/09/30 09:50:25;;;;;;;7.40;1.00;;;;;;;14.57;71.30;101624.62;5150043;57;21261;-80
2021/09/30 09:55:37;;;;;;;2.57;1.07;;;;;;;14.59;70.39;101624.02;5150856;57;21183;-80
2021/09/30 10:01:01;;;;;;;5.00;1.07;;;;;;;14.64;69.45;101635.66;5151898;57;21182;-83
2021/09/30 10:06:07;;;;;;;;;;;;;;;14.79;69.72;101634.48;5155395;57;21774;-81
2021/09/30 10:11:13;;;;;;;6.53;1.17;;;;;;;14.74;69.58;101632.64;5162916;57;20181;-81
2021/09/30 10:16:24;;;;;;;5.60;1.60;;;;;;;14.60;69.74;101639.52;5164584;57;21249;-84
2021/09/30 10:21:32;;;;;;;4.17;1.10;;;;;;;14.40;70.54;101645.87;5179467;56;21187;-82
2021/09/30 10:26:44;;;;;;;7.87;1.60;;;;;;;14.49;70.82;101645.67;5177058;56;21103;-80
2021/09/30 10:31:54;;;;;;;2.00;1.30;;;;;;;14.53;70.91;101655.09;5174771;57;21087;-81
2021/09/30 10:37:21;;;;;;;8.90;1.50;;;;;;;14.67;71.28;101653.56;5201446;56;21210;-80
2021/09/30 10:42:55;;;;;;;9.47;1.57;;;;;;;14.87;70.70;101661.35;5241204;56;21154;-80
2021/09/30 10:48:30;;;;;;;3.40;1.02;;;;;;;15.08;70.33;101655.70;5241369;56;21165;-81
2021/09/30 10:53:50;;;;;;;3.37;1.47;;;;;;;15.09;69.92;101652.55;5176080;56;21169;-81
2021/09/30 10:59:19;;;;;;;6.87;1.97;;;;;;;15.31;68.25;101654.34;5174106;57;21225;-80
2021/09/30 11:04:25;;;;;;;18.43;6.77;;;;;;;15.40;67.87;101659.81;5132713;57;21161;-81
2021/09/30 11:09:31;;;;;;;3.30;1.30;;;;;;;15.18;67.37;101654.95;5091133;58;21102;-80
2021/09/30 11:14:55;;;;;;;3.30;1.17;;;;;;;14.96;68.29;101659.33;5183742;56;21533;-80
2021/09/30 11:20:28;;;;;;;8.47;1.50;;;;;;;14.83;68.83;101661.70;5241373;56;21509;-80
2021/09/30 11:26:11;;;;;;;4.30;1.37;;;;;;;14.93;68.76;101668.03;5175740;57;21207;-81
2021/09/30 11:31:28;;;;;;;8.93;1.53;;;;;;;15.28;66.81;101659.44;5156227;57;21161;-81
2021/09/30 11:36:39;;;;;;;4.93;1.80;;;;;;;15.27;65.42;101657.77;5166039;57;21185;-80
2021/09/30 11:41:51;;;;;;;10.90;2.60;;;;;;;15.21;65.07;101659.57;5159708;57;21614;-80
2021/09/30 11:46:59;;;;;;;8.77;3.07;;;;;;;15.13;66.58;101660.16;5163316;57;21548;-81
2021/09/30 11:52:11;;;;;;;8.67;1.63;;;;;;;15.40;67.18;101658.48;5110761;57;21219;-81
2021/09/30 11:57:28;;;;;;;5.67;1.30;;;;;;;15.86;65.20;101656.62;5081910;58;21257;-81
2021/09/30 12:02:33;;;;;;;4.40;1.10;;;;;;;16.19;63.02;101668.01;5082750;58;21196;-81
2021/09/30 12:07:39;;;;;;;1.03;0.80;;;;;;;16.30;62.25;101668.47;5082615;58;21193;-80
2021/09/30 12:12:46;;;;;;;3.90;0.40;;;;;;;16.35;61.41;101675.59;5128193;57;21652;-81
2021/09/30 12:17:52;;;;;;;1.90;0.63;;;;;;;16.37;61.10;101664.30;5153228;57;21198;-80
2021/09/30 12:23:01;;;;;;;1.97;0.70;;;;;;;16.44;60.26;101660.16;5153329;57;22361;-81
2021/09/30 12:28:06;;;;;;;3.20;1.17;;;;;;;16.57;59.83;101663.12;5152570;57;21197;-82
2021/09/30 12:33:13;;;;;;;5.13;1.27;;;;;;;16.82;57.73;101676.10;5150107;57;21193;-82
2021/09/30 12:38:21;;;;;;;7.67;0.77;;;;;;;16.56;58.97;101671.61;5150152;57;21477;-81
2021/09/30 12:43:31;;;;;;;4.37;1.17;;;;;;;16.31;59.72;101671.98;5150773;57;21587;-82
2021/09/30 12:48:41;;;;;;;5.23;1.10;;;;;;;16.36;61.25;101665.76;5152248;57;21213;-82
2021/09/30 12:53:51;;;;;;;5.50;1.23;;;;;;;16.57;59.25;101657.29;5145102;57;21217;-82
2021/09/30 12:58:59;;;;;;;2.23;0.97;;;;;;;16.69;59.37;101655.42;5140952;57;21217;-81
2021/09/30 13:04:26;;;;;;;3.77;0.97;;;;;;;16.60;57.54;101652.18;5130660;57;21560;-80
2021/09/30 13:09:39;;;;;;;1.57;0.63;;;;;;;16.58;59.05;101651.45;5155222;57;22394;-81
2021/09/30 13:14:53;;;;;;;12.30;1.30;;;;;;;16.53;57.85;101666.04;5108322;57;22413;-82
2021/09/30 13:20:06;;;;;;;5.07;1.63;;;;;;;16.67;59.35;101660.05;5083957;58;21118;-82
2021/09/30 13:25:19;;;;;;;3.50;0.97;;;;;;;16.82;59.19;101660.07;5083197;58;21591;-82
2021/09/30 13:30:43;;;;;;;9.13;2.23;;;;;;;16.70;58.54;101658.45;5102594;57;21778;-80
2021/09/30 13:35:42;;;;;;;5.77;1.67;;;;;;;16.47;59.85;101657.23;5122256;57;21259;-81
2021/09/30 13:40:48;;;;;;;5.20;0.87;;;;;;;16.39;60.56;101658.83;5093854;57;21188;-81
2021/09/30 13:45:53;;;;;;;15.20;1.33;;;;;;;16.28;59.66;101653.55;5099276;57;21522;-82
2021/09/30 13:50:59;;;;;;;5.93;0.90;;;;;;;16.36;61.00;101653.25;5127257;57;21267;-81
2021/09/30 13:56:06;;;;;;;6.47;1.10;;;;;;;16.54;61.07;101658.39;5154095;57;21139;-81
2021/09/30 14:01:11;;;;;;;3.10;1.80;;;;;;;16.78;60.47;101663.52;5145685;57;21154;-82
2021/09/30 14:06:18;;;;;;;6.63;2.53;;;;;;;16.68;58.96;101659.91;5169414;57;21500;-82
2021/09/30 14:11:26;;;;;;;6.97;1.47;;;;;;;16.52;58.41;101670.17;5156416;57;21569;-82
2021/09/30 14:16:31;;;;;;;0.60;0.50;;;;;;;16.35;57.70;101663.58;5133577;57;21140;-83
2021/09/30 14:21:37;;;;;;;1.57;0.93;;;;;;;16.25;59.90;101663.14;5094040;57;21144;-86
2021/09/30 14:26:42;;;;;;;4.60;2.40;;;;;;;16.12;59.19;101660.66;5078592;57;21089;-83
2021/09/30 14:31:48;;;;;;;5.53;2.27;;;;;;;16.15;59.99;101664.41;5078714;57;21144;-84
2021/09/30 14:36:54;;;;;;;2.53;1.43;;;;;;;16.21;59.84;101663.03;5078781;57;21148;-85
2021/09/30 14:42:00;;;;;;;3.77;0.97;;;;;;;16.18;59.89;101662.83;5078632;57;21148;-82
2021/09/30 14:47:06;;;;;;;3.83;1.00;;;;;;;16.38;58.31;101655.31;5078692;57;21482;-84
2021/09/30 14:52:14;;;;;;;2.63;0.67;;;;;;;16.61;58.79;101657.88;5107605;57;21161;-83
2021/09/30 14:57:20;;;;;;;4.03;1.20;;;;;;;16.72;56.79;101660.02;5145777;57;21683;-85
2021/09/30 15:02:27;;;;;;;3.10;0.77;;;;;;;16.76;57.67;101657.45;5138634;57;21183;-83
2021/09/30 15:07:33;;;;;;;5.53;1.27;;;;;;;16.92;57.62;101662.33;5121943;57;21221;-85
2021/09/30 15:12:38;;;;;;;4.10;1.20;;;;;;;17.00;57.25;101662.50;5093981;57;21442;-82
2021/09/30 15:22:49;;;;;;;5.30;2.33;;;;;;;16.99;56.16;101670.65;5070774;58;21487;-82
2021/09/30 15:27:56;;;;;;;6.67;1.00;;;;;;;16.83;55.47;101669.30;5068777;58;21584;-83
2021/09/30 15:33:02;;;;;;;4.30;0.87;;;;;;;16.58;56.51;101676.34;5069234;58;21880;-84
2021/09/30 15:38:08;;;;;;;5.17;0.83;;;;;;;16.32;56.93;101673.69;5111236;57;21252;-80
2021/09/30 15:43:14;;;;;;;7.13;5.73;;;;;;;16.21;57.29;101671.89;5109222;57;22453;-84
2021/09/30 15:48:19;;;;;;;2.57;2.00;;;;;;;16.19;57.99;101678.69;5124087;57;21181;-77
2021/09/30 15:53:26;;;;;;;10.80;3.57;;;;;;;16.61;58.19;101682.77;5096474;57;21529;-78
2021/09/30 15:58:31;;;;;;;4.77;1.87;;;;;;;16.44;58.17;101682.85;5097445;57;21153;-80
2021/09/30 16:03:37;;;;;;;10.67;4.40;;;;;;;16.24;58.42;101690.33;5097362;57;21519;-85
2021/09/30 16:08:43;;;;;;;7.50;4.40;;;;;;;16.15;58.95;101699.11;5109107;57;21152;-81
2021/09/30 16:13:48;;;;;;;14.03;8.53;;;;;;;15.98;59.07;101691.63;5110388;57;21130;-78
2021/09/30 16:18:54;;;;;;;10.93;4.30;;;;;;;15.82;59.28;101698.21;5128411;57;21158;-78
2021/09/30 16:23:59;;;;;;;15.77;6.23;;;;;;;15.65;59.53;101697.87;5151327;57;21165;-82
2021/09/30 16:29:05;;;;;;;15.63;9.67;;;;;;;15.45;59.75;101698.08;5176005;57;21607;-81
2021/09/30 16:34:11;;;;;;;6.73;3.97;;;;;;;15.38;60.22;101709.73;5135679;57;21263;-77
2021/09/30 16:39:17;;;;;;;34.17;18.13;;;;;;;15.38;60.20;101714.22;5133422;57;21177;-81
2021/09/30 16:44:23;;;;;;;18.30;10.63;;;;;;;15.35;60.58;101727.78;5126803;57;21166;-82
2021/09/30 16:49:29;;;;;;;170.27;91.93;;;;;;;15.24;60.20;101731.30;5105570;57;21202;-81
2021/09/30 16:54:34;;;;;;;309.23;159.17;;;;;;;15.12;60.67;101737.06;5135051;57;21205;-75
2021/09/30 16:59:40;;;;;;;46.67;26.43;;;;;;;15.13;61.53;101741.92;5132174;57;21165;-76
2021/09/30 17:04:46;;;;;;;136.90;82.90;;;;;;;15.14;61.85;101747.12;5138289;57;21536;-79
2021/09/30 17:09:51;;;;;;;33.13;16.30;;;;;;;15.11;61.96;101754.05;5137604;57;21188;-79
2021/09/30 17:14:57;;;;;;;72.77;37.83;;;;;;;15.02;61.81;101751.23;5132032;57;21134;-81
2021/09/30 17:20:07;;;;;;;31.93;16.60;;;;;;;14.91;62.12;101749.39;5140957;57;21118;-74
2021/09/30 17:25:14;;;;;;;38.83;20.53;;;;;;;14.87;62.50;101752.40;5136083;57;21217;-82
2021/09/30 17:30:23;;;;;;;21.03;10.17;;;;;;;14.81;62.89;101754.21;5130961;57;21184;-80
2021/09/30 17:35:28;;;;;;;26.73;12.13;;;;;;;14.73;62.97;101762.28;5133661;57;21196;-86
2021/09/30 17:40:34;;;;;;;45.47;17.17;;;;;;;14.61;63.11;101768.53;5147729;57;21266;-79
2021/09/30 17:45:40;;;;;;;51.83;19.03;;;;;;;14.40;63.03;101772.30;5169909;57;21109;-79
2021/09/30 17:50:46;;;;;;;161.57;69.73;;;;;;;14.16;63.32;101776.73;5126846;57;21540;-78
2021/09/30 17:55:52;;;;;;;136.97;52.80;;;;;;;13.98;63.94;101779.39;5169435;57;21524;-79
2021/09/30 18:00:59;;;;;;;138.37;49.83;;;;;;;13.85;64.38;101791.86;5111488;57;21552;-79
2021/09/30 18:06:04;;;;;;;112.43;43.53;;;;;;;13.71;64.54;101796.36;5175957;57;21157;-79
2021/09/30 18:11:10;;;;;;;117.03;39.93;;;;;;;13.58;64.90;101801.31;5175902;57;21102;-79
2021/09/30 18:16:16;;;;;;;84.53;29.70;;;;;;;13.51;65.50;101798.22;5173081;57;21095;-79
2021/09/30 18:21:24;;;;;;;82.77;25.53;;;;;;;13.49;65.72;101804.59;5136711;57;21199;-80
2021/09/30 18:26:30;;;;;;;80.83;23.60;;;;;;;13.42;65.87;101805.98;5137712;57;21192;-81
2021/09/30 18:31:36;;;;;;;82.20;26.73;;;;;;;13.28;65.51;101810.92;5131478;57;21226;-79
2021/09/30 18:36:46;;;;;;;86.33;34.57;;;;;;;13.10;65.55;101812.98;5124399;57;21165;-79
2021/09/30 18:41:52;;;;;;;78.03;38.50;;;;;;;12.87;65.80;101818.50;5122104;57;21722;-79
2021/09/30 18:46:57;;;;;;;69.03;31.10;;;;;;;12.77;66.20;101819.22;5131648;57;21113;-79
2021/09/30 18:52:04;;;;;;;57.50;29.20;;;;;;;12.67;66.60;101826.47;5157727;57;21166;-80
2021/09/30 18:57:10;;;;;;;62.27;30.77;;;;;;;12.50;66.54;101823.20;5176135;57;21154;-79
2021/09/30 19:02:15;;;;;;;60.73;28.83;;;;;;;12.41;67.26;101831.27;5176432;57;21161;-78
2021/09/30 19:07:21;;;;;;;65.13;22.03;;;;;;;12.51;67.37;101839.03;5092310;58;21463;-79
2021/09/30 19:12:27;;;;;;;63.23;23.30;;;;;;;12.52;67.21;101842.55;5092284;58;21626;-78
2021/09/30 19:17:33;;;;;;;62.77;22.17;;;;;;;12.47;67.53;101841.97;5107799;57;21165;-80
2021/09/30 19:22:41;;;;;;;54.87;22.87;;;;;;;12.39;67.30;101842.45;5133287;57;21163;-80
2021/09/30 19:27:49;;;;;;;63.50;22.10;;;;;;;12.33;67.49;101843.72;5129734;57;21665;-79
2021/09/30 19:32:55;;;;;;;40.97;18.27;;;;;;;12.29;67.63;101846.18;5134418;57;21196;-79
2021/09/30 19:38:04;;;;;;;60.40;21.13;;;;;;;12.22;67.71;101848.01;5132565;57;22207;-79
2021/09/30 19:43:11;;;;;;;44.27;16.77;;;;;;;12.20;68.04;101849.90;5134809;57;21500;-78
2021/09/30 19:48:17;;;;;;;55.37;18.40;;;;;;;12.14;67.61;101844.50;5133912;57;21146;-79
2021/09/30 19:53:22;;;;;;;58.77;19.63;;;;;;;11.99;67.74;101848.11;5136786;57;21156;-78
2021/09/30 19:58:28;;;;;;;47.03;17.67;;;;;;;11.85;67.85;101846.80;5125725;57;21157;-79
2021/09/30 20:03:34;;;;;;;39.43;16.43;;;;;;;11.74;67.90;101842.59;5136131;57;21196;-79
2021/09/30 20:08:40;;;;;;;37.13;14.90;;;;;;;11.64;68.34;101840.49;5138646;57;21405;-79
2021/09/30 20:13:45;;;;;;;40.13;15.17;;;;;;;11.55;68.10;101840.21;5125148;57;21189;-78
2021/09/30 20:18:52;;;;;;;33.83;13.93;;;;;;;11.43;68.38;101840.48;5107506;57;21460;-79
2021/09/30 20:23:57;;;;;;;48.73;15.83;;;;;;;11.38;68.41;101845.20;5105592;57;21208;-79
2021/09/30 20:29:07;;;;;;;40.57;16.10;;;;;;;11.36;68.73;101845.75;5113430;57;21173;-79
2021/09/30 20:34:13;;;;;;;68.87;19.77;;;;;;;11.41;69.19;101846.34;5111201;57;21230;-79
2021/09/30 20:39:20;;;;;;;53.33;19.33;;;;;;;11.43;69.05;101852.41;5114567;57;21074;-79
2021/09/30 20:44:26;;;;;;;34.50;15.60;;;;;;;11.43;69.01;101855.53;5120464;57;21162;-78
2021/09/30 20:49:31;;;;;;;31.53;14.37;;;;;;;11.28;68.30;101854.64;5108775;57;21212;-79
2021/09/30 20:54:37;;;;;;;45.13;18.27;;;;;;;11.12;68.45;101855.16;5157016;57;22129;-78
2021/09/30 20:59:43;;;;;;;38.77;15.20;;;;;;;10.99;69.02;101851.06;5157621;57;21230;-78
2021/09/30 21:04:52;;;;;;;39.27;15.73;;;;;;;10.86;68.92;101853.53;5156788;57;22150;-79
2021/09/30 21:09:58;;;;;;;41.90;16.03;;;;;;;10.68;69.02;101849.33;5161744;57;21166;-79
2021/09/30 21:15:04;;;;;;;38.23;14.37;;;;;;;10.50;69.19;101851.20;5161660;57;21208;-79
2021/09/30 21:20:11;;;;;;;34.67;11.17;;;;;;;10.36;69.64;101843.19;5162049;57;21656;-79
2021/09/30 21:25:17;;;;;;;32.67;12.20;;;;;;;10.24;69.69;101845.17;5162157;57;21213;-79
2021/09/30 21:30:23;;;;;;;28.10;11.07;;;;;;;10.30;70.50;101846.16;5165245;57;21407;-79
2021/09/30 21:35:29;;;;;;;26.43;10.97;;;;;;;10.33;70.27;101855.73;5160092;57;21675;-79
2021/09/30 21:40:36;;;;;;;26.07;10.50;;;;;;;10.33;70.49;101851.29;5159551;57;21170;-80
2021/09/30 21:45:42;;;;;;;23.00;10.70;;;;;;;10.36;70.59;101852.91;5159579;57;21154;-79
2021/09/30 21:50:48;;;;;;;31.13;11.97;;;;;;;10.28;70.04;101855.97;5161950;57;21153;-79
2021/09/30 21:55:55;;;;;;;24.90;10.23;;;;;;;10.17;70.31;101857.86;5167329;57;21155;-79
2021/09/30 22:01:04;;;;;;;25.67;9.97;;;;;;;10.10;70.38;101861.75;5166917;57;21533;-79
2021/09/30 22:06:10;;;;;;;16.20;6.93;;;;;;;10.08;70.89;101864.13;5152222;57;21253;-78
2021/09/30 22:11:16;;;;;;;19.50;7.97;;;;;;;10.01;70.56;101871.98;5152181;57;21391;-79
2021/09/30 22:16:26;;;;;;;20.30;7.93;;;;;;;9.91;70.78;101865.48;5156323;57;21567;-79
2021/09/30 22:21:32;;;;;;;15.37;6.87;;;;;;;9.85;70.65;101866.19;5154810;57;22410;-79
2021/09/30 22:26:38;;;;;;;23.23;7.67;;;;;;;9.84;70.61;101867.13;5156102;57;21123;-79
2021/09/30 22:31:44;;;;;;;16.80;6.10;;;;;;;9.82;71.15;101874.27;5155360;57;21194;-79
2021/09/30 22:36:51;;;;;;;25.47;6.57;;;;;;;9.81;71.30;101872.56;5154188;57;21204;-79
2021/09/30 22:41:57;;;;;;;24.23;8.87;;;;;;;9.65;70.78;101874.30;5159904;57;21250;-79
2021/09/30 22:47:04;;;;;;;21.30;7.67;;;;;;;9.51;71.22;101876.34;5160484;57;21197;-79
2021/09/30 22:52:10;;;;;;;21.67;6.40;;;;;;;9.36;71.52;101880.23;5105171;57;21171;-79
2021/09/30 22:57:16;;;;;;;21.73;10.40;;;;;;;9.27;71.79;101885.52;5073158;58;21152;-79
2021/09/30 23:02:21;;;;;;;19.00;6.97;;;;;;;9.21;71.97;101884.96;5081297;58;21181;-79
2021/09/30 23:07:27;;;;;;;24.17;10.17;;;;;;;9.20;72.06;101881.94;5086260;58;21179;-80
2021/09/30 23:12:33;;;;;;;43.20;17.33;;;;;;;9.20;72.21;101879.30;5076777;58;21539;-79
2021/09/30 23:17:40;;;;;;;18.63;8.37;;;;;;;9.21;72.39;101877.05;5086618;58;21177;-79
2021/09/30 23:22:46;;;;;;;8.33;4.00;;;;;;;9.07;72.13;101879.05;5075678;58;21089;-79
2021/09/30 23:27:52;;;;;;;7.63;3.60;;;;;;;8.99;72.58;101875.49;5071037;58;21491;-79
2021/09/30 23:32:58;;;;;;;6.27;3.20;;;;;;;8.84;72.19;101878.03;5083536;58;21150;-79
2021/09/30 23:38:05;;;;;;;7.63;2.87;;;;;;;8.75;72.69;101889.86;5075326;58;21152;-80
2021/09/30 23:43:11;;;;;;;7.33;3.87;;;;;;;8.71;73.17;101893.10;5080656;58;21591;-79
2021/09/30 23:48:17;;;;;;;8.93;3.77;;;;;;;8.72;72.86;101888.22;5074606;58;21184;-80
2021/09/30 23:53:23;;;;;;;5.63;3.47;;;;;;;8.76;73.11;101890.25;5151722;57;21165;-79
2021/09/30 23:58:29;;;;;;;17.70;6.57;;;;;;;8.71;72.76;101893.10;5145451;57;21120;-79
